Aviation Digital Data Service (ADDS)

Output produced by METARs form (1045 UTC 19 January 2019)
found at http://www.aviationweather.gov/metar/data/
 
VEAT 191030Z 00000KT 2000 HZ NSC 24/15 Q1013 NOSIG
TAF VEAT 190800Z 1909/1918 34003KT 2500 HZ NSC 
     BECMG 1912/1914 2000 BR 
     BECMG 1916/1918 00000KT 1500 BR
       
TAF VOAT 190200Z 1903/1912 05005KT 4000 HZ FEW015 SCT090 
     TEMPO 1909/1912 FEW025CB
       
TAF VIAG 190330Z 1906/1918 24005KT 3000 HZ BRCMG 1908/1909 5000 HZ FEW200 
     BECMG 1912/1913 VRB02KT 3000 BR 
     BECMG 1914/1915 00000KT 1500 BR 
     BECMG 1916/1918 0800 FG
       
VAAH 191030Z 06005KT 6000 NSC 31/06 Q1013 NOSIG
TAF VAAH 190800Z 1909/1918 12004KT 5000 FU NSC 
     BECMG 1912/1914 03003KT 4000 FU NSC
       
VIAR 190800Z 27007KT 2000 HZ SCT100 SCT200 18/06 Q1018 NOSIG
TAF VIAR 190800Z 1909/1918 27004KT 2000 FU SCT040 SCT100 
     BECMG 1910/1912 3000 FU NSC
       
VAAU 190900Z 05004KT 4000 HZ NSC 30/13 Q1017 NOSIG
TAF VAAU 190800Z 1909/1918 09005KT 5000 HZ NSC 
     BECMG 1912/1914 25005KT 4000 HZ 
     BECMG 1915/1917 VRB03KT 3000 HZ 
       
TAF VEBD 190930Z 1912/1924 20005KT 5000 HZ NSC 
     BECMG 1916/1918 3000 BR
       
VOBG 191030Z 06010KT 8000 SKC 29/01 Q1015
TAF VOBG 190800Z 1909/1918 11010KT 8000 NSC
       
TAF VABV 190800Z 1909/1918 09004KT 4000 FU NSC 
     BECMG 1912/1914 12003KT 3000 FU NSC
       
VABP 191000Z 09003KT 6000 NSC 27/05 Q1017 NOSIG
TAF VABP 190500Z 1906/1915 07005KT 5000 HZ NSC
       
VEBS 191030Z 29003KT 2500 HZ NSC 28/12 Q1014 NOSIG
TAF VEBS 190800Z 1909/1918 29003KT 2000 HZ NSC 
     BECMG 1916/1918 1500 BR
       
TAF VABJ 190930Z 1912/1924 07005KT 6000 FEW250 
     BECMG 1914/1915 VRB02KT
       
VERC 191030Z 02002KT 5000 HZ NSC 22/01 Q1016 NOSIG
TAF VERC 190800Z 1909/1918 03003KT 5000 HZ NSC 
     BECMG 1912/1914 00000KT 4000 HZ
       
VOCL 191030Z 32005KT 5000 HZ NSC 30/21 Q1010 NOSIG
TAF VOCL 190800Z 1909/1918 28010KT 5000 HZ FEW015 SCT090 
     TEMPO 1909/1912 FEW025CB 
     BECMG 1917/1918 09005KT 4000 HZ
       
TAF VICG 190930Z 1912/1924 32005KT 5000 HZ SCT090 BKN250 
     BECMG 1914/1915 VRB02KT 4000 BR BKN090 SCT250 
     PROB30 
     TEMPO 1920/1924 VRB02KT 3000 -RABR FEW040 BKN090
       
VOMM 191030Z 05012KT 6000 NSC 29/19 Q1013 NOSIG
TAF VOMM 190500Z 1906/2012 05010KT 5000 HZ FEW020 SCT100 
     BECMG 1915/1916 VRB02KT 3000 BR 
     BECMG 1921/1922 2000 BR 
     TEMPO 2000/2003 1000 MIFG 
     BECMG 2003/2004 3000 BR 
     BECMG 2006/2007 05010KT 5000 HZ
       
VABB 191030Z 27010KT 2500 FU NSC 30/19 Q1011 NOSIG
TAF VABB 190800Z 1909/1918 25008KT 3000 FU NSC 
     BECMG 1912/1914 31005KT 2500 FU 
     BECMG 1912/1914 VRB03KT 1500 HZ 
       
VOCI 191030Z 27007KT 6000 NSC 32/18 Q1009 NOSIG
TAF VOCI 190800Z 1909/1918 25010KT 5000 HZ FEW015 SCT090 
     TEMPO 1909/1912 FEW025CB 
     BECMG 1917/1918 00000KT 4000 HZ
       
VOCB 191030Z 08006KT 6000 NSC 31/07 Q1013 NOSIG
TAF VOCB 190500Z 1906/2012 07010KT 6000 FEW015 
     BECMG 1915/1916 01005KT 4000 HZ 
     TEMPO 2000/2003 2000 BR 
     BECMG 2006/2007 07010KT 6000
       
VOCP 191030Z 09011KT 5000 HZ NSC 31/15 Q1012
TAF VOCP 190800Z 1909/1918 11007KT 5000 HZ NSC 
     BECMG 1914/1916 VRB03KT 3000 BR NSC
       
TAF VIDN 182300Z 1900/1909 VRB02KT 1500 BR FEW100 
     BECMG 1903/1905 22005KT 5000 HZ
       
VAID 191000Z 08009KT 6000 NSC 28/M03 Q1016 NOSIG
TAF VAID 190500Z 1906/1915 07005KT 5000 HZ NSC
       
VEMN 191030Z 00000KT 5000 HZ FEW020 25/15 Q1013 NOSIG
TAF VEMN 190800Z 1909/1918 07006KT 6000 FEW025 
     BECMG 1915/1918 00000KT 3000 HZ
       
TAF VEGK 190930Z 1912/1924 27005KT 3000 HZ SKC 
     BECMG 1912/1914 VRB02KT 2000 HZ SKC 
     BECMG 1918/1920 1500 BR SKC 
     BECMG 1921/1923 0800 FG
       
VEGT 191030Z 34004KT 3500 HZ FEW020 25/12 Q1013 NOSIG
TAF VEGT 190800Z 1909/1918 34009KT 3000 HZ FEW020 
     BECMG 1913/1915 00000KT 2500 BR 
     BECMG 1917/1918 2000 BR
       
TAF VIGR 190930Z 1912/2000 32005KT 4000 HZ FEW100 SCT250 
     BECMG 1914/1915 VRB02KT 3000 HZ 
     BECMG 1918/1920 1500 BR 
     BECMG 1922/1924 1000 BR
       
VOHY 191030Z VRB03KT 5000 HZ NSC 29/15 Q1017 NOSIG
TAF VOHY 190800Z 1909/1918 10008KT 5000 HZ NSC 
     TEMPO 1915/1918 VRB04KT 3000 BR NSC
       
VEIM 191030Z 19004KT 5000 HZ FEW010 SCT018 21/10 Q1014 NOSIG
TAF VEIM 190800Z 1909/1918 06008KT 4000 HZ FEW018 
     BECMG 1913/1915 00000KT 3000 BR 
     BECMG 1916/1918 2000 BR 
       
VIDP 191030Z 27005KT 3200 HZ SCT040 SCT100 24/06 Q1016 NOSIG
TAF VIDP 190800Z 1909/1918 25004KT 1500 FU NSC 
     BECMG 1910/1912 2500 FU NSC
       
VAJB 191000Z 31005KT 4000 HZ NSC 25/05 Q1017
TAF VAJB 190500Z 1906/1915 12005KT 4000 HZ NSC 
     BECMG 1908/1910 5000
       
VIJP 191030Z 20005KT 4000 HZ FEW100 26/02 Q1016 NOSIG
TAF VIJP 190800Z 1909/1918 23003KT 3000 HZ SCT100 
     BECMG 1912/1914 VRB03KT 2000 HZ
       
TAF VIJR 190930Z 1912/1924 05005KT 6000 FEW100 BKN250
       
TAF VIJU 190930Z 1918/2012 34003KT 4000 BR FEW030 SCT090 BKN200 
     TEMPO 2002/2004 VRB02KT 3000 BR 
     BECMG 2008/2009 25005KT 5000 HZ SCT025 BKN090
       
TAF VAJM 190930Z 1912/1924 36005KT 6000 FEW250 
     BECMG FM 1918 VRB02KT 5000 HZ
       
VEJS 191000Z 00000KT 4000 HZ NSC 25/05 Q1014
TAF VEJS 190800Z 1909/1918 26004KT 4000 HZ NSC 
     BECMG 1912/1914 00000KT 3000 HZ
       
VEJH 190830Z 00000KT 5000 HZ NSC 27/05 Q1016
TAF VIJO 190930Z 1912/1924 24010KT 6000 FEW100 BKN250
       
TAF VEJT 190930Z 1912/2000 VRB02KT 5000 BR SKC 
     BECMG 1916/1918 3000 BR 
     BECMG 1920/1922 1500 BR 
     BECMG 1923/2000 0800 FG
       
TAF VAKE 190800Z 1909/1918 VRB02KT 6000 NSC 
     BECMG 1912/1914 02005KT 4000 FU NSC
       
TAF VIGG 182300Z 1900/1909 03008KT 0800 BR RASN SCT025 FEW030CB BKN060 
     BECMG 1906/1907 10005KT 3000 SCT030 BKN080
       
TAF VAKP 190800Z 1909/1918 14005KT 4000 HZ NSC 
     BECMG 1912/1914 05005KT 3000 HZ 
     BECMG 1915/1917 00000KT 2500 HZ 
       
TAF VIBR 182300Z 1900/1909 03008KT 0800 BR RASN SCT025 FEW030CB BKN060 
     BECMG 1906/1907 10005KT 3000 SCT030 BKN080
       
TAF VILH 190330Z 1906/1918 VRB02KT 6000 FEW 060 BKN 150 
     BECMG 27010KT 1912/1918 SCT 060 SCT 100 BKN 120
       
VELP 191000Z 36004KT 5000 HZ FEW018 23/12 Q1014 NOSIG
TAF VELP 190800Z 1909/1918 05004KT 5000 HZ FEW018 
     BECMG 1912/1914 00000KT 3000 BR 
     BECMG 1916/1918 1500 BR
       
TAF VELR 190800Z 1909/1918 05008KT 5000 HZ FEW020 
     BECMG 1913/1915 00000KT 3000 BR
       
VILK 191030Z 29008KT 2000 HZ NSC 23/04 Q1016 NOSIG
TAF VILK 190800Z 1909/1918 26005KT 2000 HZ NSC 
     BECMG 1912/1914 VRB02KT 1500 HZ BR 
     BECMG 1916/1918 00000KT 1000 MIFG
       
VOMD 191030Z 10009KT 6000 FEW020 32/17 Q1012 NOSIG
TAF VOMD 190500Z 1906/2012 05010KT 5000 HZ FEW020 SCT100 
     BECMG 1921/1922 VRB02KT 3000 HZ 
     BECMG 2003/2004 05010KT 5000 HZ
       
VOML 191030Z 27008KT 5000 HZ NSC 29/15 Q1010 NOSIG
TAF VOML 190800Z 1909/1918 27010KT 8000 NSC
       
VANP 191030Z 08002KT 5000 HZ NSC 29/06 Q1015 NOSIG
TAF VANP 190800Z 1909/1918 05003KT 5000 HZ NSC 
     BECMG 1911/1913 00000KT 4000 HZ NSC
       
VECC 191030Z 31005KT 3600 HZ NSC 24/09 Q1013 NOSIG
TAF VECC 190800Z 1909/1918 34005KT 3500 HZ NSC 
     BECMG 1912/1914 00000KT 2500 HZ
       
VEPT 191030Z 28005KT 3000 HZ NSC 22/10 Q1014 NOSIG
TAF VEPT 190800Z 1909/1918 27004KT 3000 HZ NSC 
     BECMG 1912/1914 3500 HZ 
     BECMG 1916/1918 00000KT 2500 HZ
       
VAPR 190600Z 09005KT 6000 NSC 28/12 Q1016
TAF VAPR 190800Z 1909/1918 25005KT 6000 NSC 
     BECMG 1912/1914 27008KT 4000 FU NSC
       
VOPB 190800Z 02010G15KT 3500 -RA SCT010 OVC080 26/24 Q1011 TEMPO 3000 RA
TAF VAPO 190930Z 1912/1924 05005KT 6000 NSC 
     BECMG 1922/1924 VRB02KT 5000 HZ
       
VORY 191030Z 17007KT 2000 HZ FU NSC 29/19 Q1013 NOSIG
TAF VORY 190800Z 1909/1918 18005KT 3000 HZ FEW020 
     BECMG 1915/1917 VRB03KT 1500 BR NSC
       
TAF VARK 190800Z 1909/1918 VRB02KT 6000 NSC 
     BECMG 1912/1914 34003KT 5000 FU NSC
       
TAF VISM 182300Z 1900/1909 03008KT 0800 BR RASN SCT025 FEW030CB BKN060 
     BECMG 1906/1907 10005KT 3000 SCT030 BKN080
       
TAF VASL 190800Z 1909/1918 14005KT 4000 HZ NSC 
     BECMG 1912/1914 05005KT 3000 HZ 
     BECMG 1915/1917 00000KT 2500 HZ 
       
TAF VEKU 190930Z 1912/1924 VRB02KT 6000 FEW030
       
TAF VISR 190330Z 1906/1918 VRB02KT 0800 -SNFG SKYOBS 
     TEMPO 1907/1910 SCT010 BKN025
       
VASU 191030Z 29002KT 6000 NSC 35/09 Q1011
TAF VASU 190800Z 1909/1918 VRB02KT 6000 NSC 
     BECMG 1912/1914 29004KT 4000 FU NSC
       
TAF VETZ 190930Z 1912/1924 VRB02KT 6000 NSC 
     BECMG 1916/1917 4000 BR NSC
       
VOTV 191030Z 31007KT 6000 FEW015 31/22 Q1009 NOSIG
TAF VOTV 190800Z 1909/1918 32010KT 5000 HZ FEW015 SCT090 
     TEMPO 1909/1912 FEW025CB 
     BECMG 1917/1918 07005KT 4000 HZ
       
VOTR 191030Z 09012KT 6000 FEW018 29/16 Q1011 NOSIG
TAF VOTR 190500Z 1906/2012 02010KT 3000 HZ FEW018 
     BECMG 1909/1910 09010KT 
     BECMG 1918/1919 02005KT 2000 BR 
     BECMG 2005/2006 09010KT 3000 HZ
       
VOTP 191030Z 07012KT 6000 FEW020 29/15 Q1013
TAF VOTP 190800Z 1909/1918 09012KT 5000 HZ SCT015 
     BECMG 1915/1917 10005KT 3000 BR FEW020
       
VAUD 191000Z 15005KT 6000 FEW100 28/03 Q1016 NOSIG
TAF VAUD 190800Z 1909/1918 15005KT 5000 HZ SCT100 
     BECMG 1912/1914 VRB03KT 3000 HZ
       
VABO 191030Z 27003KT 6000 NSC 31/08 Q1012 NOSIG
TAF VABO 190800Z 1909/1918 10002KT 6000 NSC 
     BECMG 1912/1914 06003KT 5000 FU NSC
       
VOBZ 191030Z 11003KT 4000 HZ FEW020 28/20 Q1013 NOSIG
TAF VOBZ 190800Z 1909/1918 11007KT 4000 HZ SCT015 
     BECMG 1911/1913 02005KT 3000 HZ FEW020 
     BECMG 1913/1915 VRB03KT 2000 BR NSC